Main page
METAR-TAF:

METAR-TAF

Airports :

Qaisumah, Saudi Arabia

Al Qaisumah/Hafr Al Batin Airport

latitude: 28-19N, longitude: 046-07E, elevation: 358 m

Current weather observation

The report was made 1 hour and 2 minutes ago, at 01:00 UTC
Wind 10 kt from the North
Temperature 35°C
Humidity 22%
Pressure 1001 hPa
Visibility 10 km or more
no clouds below 1500 m and no cumulonimbus

METAR: OEPA 290100Z 36010KT CAVOK 35/10 Q1001 NOSIG

Time: 05:02 (02:02 UTC)

Forecast

The report was made 3 hours and 2 minutes ago, at 23:00 UTC
Forecast valid from 29 at 00 UTC to 30 at 06 UTC
Wind 10 kt from the North with gusts up to 20 kt
Visibility: 7000 m
Clear sky
Temporary
from 29 at 00 UTC to 29 at 14 UTC
Visibility: 3500 m
widespread dust, Blowing dust
Probability 30%
from 29 at 06 UTC to 29 at 12 UTC
Visibility: 2000 m
Blowing sand

TAF: OEPA 282300Z 2900/3006 36010G20KT 7000 SKC TEMPO 2900/2914 3500 DU BLDU PROB30 2906/2912 2000 BLSA

Weather observations and forecasts of more than 4000 airports (METAR and TAF reports).

The available stations are represented by yellow and red dots on the map.

Hover mouse over dot to see the name of the station.

Then click to see weather observations and forecasts.

To change the map : click on the green buttons with a black cross to zoom in, on the green button with a dash to zoom out, or on the green arrows for adjacent maps.


METAR-TAF: